Time;durP1;ratioP1;P1;durP2;ratioP2;P2;SDS_P1;SDS_P2;PMS_P1;PMS_P2;Temp;Humidity;BMP_temperature;BMP_pressure;BME280_temperature;BME280_humidity;BME280_pressure;Samples;Min_cycle;Max_cycle;Signal;HPM_P1;HPM_P2
2023/08/02 00:01:08;;;;;;;3.00;2.57;;;17.60;1.00;;;;;;5100010;27;20518;-70
2023/08/02 00:03:35;;;;;;;3.57;2.80;;;17.60;1.00;;;;;;5097769;28;20566;-71
2023/08/02 00:06:02;;;;;;;3.20;2.73;;;17.60;1.00;;;;;;5097630;28;20463;-70
2023/08/02 00:08:30;;;;;;;4.17;3.10;;;17.50;1.00;;;;;;5098297;28;20894;-73
2023/08/02 00:10:58;;;;;;;5.47;3.57;;;17.50;1.00;;;;;;5098356;27;20480;-71
2023/08/02 00:13:25;;;;;;;3.70;3.00;;;17.40;1.00;;;;;;5095497;28;20463;-71
2023/08/02 00:15:53;;;;;;;3.87;3.00;;;17.30;1.00;;;;;;5104154;27;20462;-71
2023/08/02 00:18:20;;;;;;;3.00;2.70;;;17.30;1.00;;;;;;5099874;28;20465;-72
2023/08/02 00:20:47;;;;;;;3.73;2.83;;;17.30;1.00;;;;;;5096467;28;20559;-71
2023/08/02 00:23:14;;;;;;;3.50;3.20;;;17.40;1.00;;;;;;5093446;27;20929;-70
2023/08/02 00:25:41;;;;;;;3.40;3.10;;;17.40;1.00;;;;;;5098293;28;20536;-71
2023/08/02 00:28:09;;;;;;;3.57;3.27;;;17.40;1.00;;;;;;5095003;28;21047;-71
2023/08/02 00:30:45;;;;;;;2.90;2.50;;;17.40;1.00;;;;;;5096439;28;20456;-72
2023/08/02 00:33:12;;;;;;;2.80;2.60;;;17.40;1.00;;;;;;5099361;28;20485;-72
2023/08/02 00:35:44;;;;;;;5.20;3.10;;;17.40;1.00;;;;;;5097034;27;20465;-71
2023/08/02 00:38:12;;;;;;;3.77;3.40;;;17.50;1.00;;;;;;5097404;27;20451;-72
2023/08/02 00:40:39;;;;;;;4.73;3.07;;;17.40;1.00;;;;;;5095176;28;20539;-72
2023/08/02 00:43:06;;;;;;;3.60;3.00;;;17.40;1.00;;;;;;5097374;28;20479;-75
2023/08/02 00:45:34;;;;;;;3.83;2.53;;;17.40;1.00;;;;;;5094854;28;21002;-74
2023/08/02 00:48:01;;;;;;;4.17;3.53;;;17.30;1.00;;;;;;5099197;28;20458;-74
2023/08/02 00:50:30;;;;;;;4.30;3.90;;;17.20;1.00;;;;;;5103148;27;20460;-75
2023/08/02 00:52:57;;;;;;;4.67;4.27;;;17.20;1.00;;;;;;5098550;28;20472;-74
2023/08/02 00:55:25;;;;;;;5.10;4.60;;;17.10;1.00;;;;;;5097746;28;20541;-75
2023/08/02 00:57:52;;;;;;;3.80;3.50;;;17.00;1.00;;;;;;5102023;27;21158;-76
2023/08/02 01:00:19;;;;;;;2.87;2.63;;;17.00;1.00;;;;;;5101362;27;20451;-75
2023/08/02 01:02:47;;;;;;;5.33;4.20;;;17.00;1.00;;;;;;5081494;22;20487;-75
2023/08/02 01:05:14;;;;;;;3.23;2.93;;;16.90;1.00;;;;;;5053035;28;20559;-76
2023/08/02 01:07:46;;;;;;;3.87;3.40;;;17.00;1.00;;;;;;5054857;28;20475;-77
2023/08/02 01:10:20;;;;;;;4.90;2.83;;;17.00;1.00;;;;;;5053532;28;20529;-76
2023/08/02 01:12:50;;;;;;;5.63;2.80;;;17.10;1.00;;;;;;5053423;28;20528;-76
2023/08/02 01:15:17;;;;;;;3.30;3.00;;;17.20;1.00;;;;;;5052136;28;20559;-76
2023/08/02 01:17:45;;;;;;;3.00;2.70;;;17.20;1.00;;;;;;5054000;28;20567;-75
2023/08/02 01:20:13;;;;;;;3.30;2.50;;;17.20;1.00;;;;;;5051029;28;20823;-75
2023/08/02 01:22:40;;;;;;;3.57;3.30;;;17.20;1.00;;;;;;5048397;28;20527;-75
2023/08/02 01:25:08;;;;;;;4.43;2.60;;;17.30;1.00;;;;;;5052508;28;20476;-76
2023/08/02 01:27:40;;;;;;;3.50;3.10;;;17.20;1.00;;;;;;5053565;28;21018;-75
2023/08/02 01:30:12;;;;;;;3.80;3.40;;;17.30;1.00;;;;;;5053286;28;20872;-76
2023/08/02 01:32:39;;;;;;;4.43;3.17;;;17.30;1.00;;;;;;5052090;28;20511;-76
2023/08/02 01:35:08;;;;;;;3.47;3.00;;;17.30;1.00;;;;;;5054497;28;20909;-76
2023/08/02 01:37:37;;;;;;;2.90;2.63;;;17.30;1.00;;;;;;5053209;28;20514;-76
2023/08/02 01:40:04;;;;;;;4.13;3.37;;;17.30;1.00;;;;;;5053165;28;20539;-77
2023/08/02 01:42:31;;;;;;;3.00;2.70;;;17.20;1.00;;;;;;5054513;28;20449;-77
2023/08/02 01:44:58;;;;;;;5.40;3.30;;;17.20;1.00;;;;;;5053623;28;20464;-76
2023/08/02 01:47:25;;;;;;;4.80;3.50;;;17.20;1.00;;;;;;5050885;28;21012;-76
2023/08/02 01:49:52;;;;;;;3.97;3.50;;;17.20;1.00;;;;;;5055635;28;20456;-76
2023/08/02 01:52:19;;;;;;;4.27;2.70;;;17.20;1.00;;;;;;5053205;28;20526;-76
2023/08/02 01:54:47;;;;;;;3.47;3.03;;;17.20;1.00;;;;;;5053699;28;20458;-76
2023/08/02 01:57:14;;;;;;;4.03;2.83;;;17.20;1.00;;;;;;5050857;28;20540;-75
2023/08/02 01:59:41;;;;;;;3.43;3.13;;;17.20;1.00;;;;;;5053333;28;20481;-76
2023/08/02 02:02:08;;;;;;;2.80;2.57;;;17.20;1.00;;;;;;5051729;28;20485;-75
2023/08/02 02:04:35;;;;;;;3.73;3.10;;;17.20;1.00;;;;;;5054335;28;20453;-76
2023/08/02 02:07:02;;;;;;;3.00;2.70;;;17.20;1.00;;;;;;5053691;28;21182;-76
2023/08/02 02:09:29;;;;;;;3.93;3.17;;;17.20;1.00;;;;;;5054615;28;20497;-76
2023/08/02 02:11:57;;;;;;;5.10;3.13;;;17.20;1.00;;;;;;5053132;28;20538;-76
2023/08/02 02:14:24;;;;;;;3.80;3.30;;;17.20;1.00;;;;;;5052303;28;20454;-76
2023/08/02 02:16:51;;;;;;;4.30;2.70;;;17.20;1.00;;;;;;5053790;28;20461;-76
2023/08/02 02:19:18;;;;;;;3.33;3.03;;;17.20;1.00;;;;;;5052704;28;20485;-76
2023/08/02 02:21:45;;;;;;;3.50;3.20;;;17.20;1.00;;;;;;5055055;28;20473;-79
2023/08/02 02:24:12;;;;;;;3.77;3.40;;;17.20;1.00;;;;;;5055337;28;20465;-79
2023/08/02 02:26:39;;;;;;;3.63;2.60;;;17.20;1.00;;;;;;5052571;28;20493;-79
2023/08/02 02:29:07;;;;;;;4.37;3.57;;;17.20;1.00;;;;;;5052370;28;20476;-77
2023/08/02 02:31:34;;;;;;;3.87;3.10;;;17.20;1.00;;;;;;5055583;28;20475;-79
2023/08/02 02:34:01;;;;;;;4.53;2.97;;;17.10;1.00;;;;;;5054529;28;20456;-79
2023/08/02 02:36:28;;;;;;;3.97;3.13;;;17.10;1.00;;;;;;5055584;28;20480;-79
2023/08/02 02:38:55;;;;;;;3.73;3.30;;;17.10;1.00;;;;;;5055522;28;20590;-79
2023/08/02 02:41:22;;;;;;;4.77;3.50;;;17.00;1.00;;;;;;5054192;28;20489;-78
2023/08/02 02:43:49;;;;;;;4.30;3.30;;;17.00;1.00;;;;;;5054313;28;20472;-78
2023/08/02 02:46:17;;;;;;;3.77;3.17;;;17.00;1.00;;;;;;5054264;28;20994;-79
2023/08/02 02:48:44;;;;;;;3.80;3.50;;;17.00;1.00;;;;;;5054916;28;20500;-79
2023/08/02 02:51:11;;;;;;;4.50;3.10;;;17.00;1.00;;;;;;5053679;28;20572;-78
2023/08/02 02:53:38;;;;;;;4.20;3.57;;;17.00;1.00;;;;;;5054370;28;20488;-78
2023/08/02 02:56:05;;;;;;;4.00;3.63;;;17.00;1.00;;;;;;5055452;28;20445;-78
2023/08/02 02:58:32;;;;;;;4.77;3.47;;;16.90;1.00;;;;;;5053959;28;20549;-79
2023/08/02 03:00:59;;;;;;;3.97;3.60;;;16.90;1.00;;;;;;5055192;28;21269;-78
2023/08/02 03:03:27;;;;;;;3.90;3.30;;;16.90;1.00;;;;;;5053822;28;20440;-79
2023/08/02 03:05:54;;;;;;;4.07;3.50;;;16.90;1.00;;;;;;5055645;28;20464;-79
2023/08/02 03:08:21;;;;;;;4.97;2.97;;;16.90;1.00;;;;;;5055292;28;20458;-79
2023/08/02 03:10:48;;;;;;;4.57;4.10;;;16.90;1.00;;;;;;5055160;28;20496;-78
2023/08/02 03:13:15;;;;;;;5.37;3.10;;;16.90;1.00;;;;;;5053373;28;20514;-78
2023/08/02 03:15:42;;;;;;;3.63;3.30;;;16.90;1.00;;;;;;5054975;28;20563;-78
2023/08/02 03:18:09;;;;;;;5.83;3.40;;;16.90;1.00;;;;;;5053335;28;20516;-78
2023/08/02 03:20:38;;;;;;;3.50;2.67;;;16.90;1.00;;;;;;5055007;28;20503;-78
2023/08/02 03:23:05;;;;;;;3.40;3.00;;;16.90;1.00;;;;;;5053799;28;20577;-75
2023/08/02 03:25:32;;;;;;;3.90;3.60;;;16.90;1.00;;;;;;5050231;28;20472;-76
2023/08/02 03:27:59;;;;;;;3.40;2.87;;;16.90;1.00;;;;;;5053334;28;20956;-76
2023/08/02 03:30:26;;;;;;;4.00;3.60;;;17.00;1.00;;;;;;5051925;28;20484;-76
2023/08/02 03:32:53;;;;;;;4.20;3.37;;;16.90;1.00;;;;;;5052205;28;20958;-76
2023/08/02 03:35:20;;;;;;;3.47;3.17;;;16.90;1.00;;;;;;5048948;28;20460;-75
2023/08/02 03:37:49;;;;;;;6.90;3.30;;;16.90;1.00;;;;;;5054244;28;20945;-76
2023/08/02 03:40:16;;;;;;;7.10;3.23;;;16.90;1.00;;;;;;5053427;28;20548;-74
2023/08/02 03:42:43;;;;;;;4.00;3.60;;;16.80;1.00;;;;;;5053374;28;20444;-75
2023/08/02 03:45:14;;;;;;;4.20;3.80;;;16.80;1.00;;;;;;5052771;28;20542;-75
2023/08/02 03:47:41;;;;;;;4.00;3.53;;;16.80;1.00;;;;;;5052854;28;20539;-76
2023/08/02 03:50:08;;;;;;;4.50;4.00;;;16.80;1.00;;;;;;5049235;28;20510;-76
2023/08/02 03:52:35;;;;;;;7.87;3.73;;;16.90;1.00;;;;;;5053061;28;20468;-76
2023/08/02 03:55:04;;;;;;;4.30;4.00;;;17.00;1.00;;;;;;5051024;28;20960;-76
2023/08/02 03:57:31;;;;;;;5.03;3.70;;;17.00;1.00;;;;;;5052916;28;20874;-76
2023/08/02 03:59:58;;;;;;;4.77;4.27;;;17.10;1.00;;;;;;5051190;28;20475;-76
2023/08/02 04:02:25;;;;;;;4.87;4.00;;;17.10;1.00;;;;;;5049499;28;20541;-76
2023/08/02 04:04:52;;;;;;;4.40;3.77;;;17.20;1.00;;;;;;5048319;28;20543;-76
2023/08/02 04:07:19;;;;;;;6.20;3.33;;;17.20;1.00;;;;;;5052138;28;20491;-75
2023/08/02 04:09:46;;;;;;;4.00;3.60;;;17.20;1.00;;;;;;5051630;28;20505;-74
2023/08/02 04:12:17;;;;;;;5.57;3.90;;;17.30;1.00;;;;;;5051705;28;20971;-75
2023/08/02 04:14:44;;;;;;;4.27;3.87;;;17.30;1.00;;;;;;5051591;28;20540;-75
2023/08/02 04:17:11;;;;;;;4.83;4.00;;;17.30;1.00;;;;;;5050914;28;20871;-75
2023/08/02 04:19:38;;;;;;;5.90;4.90;;;17.20;1.00;;;;;;5051072;28;20520;-76
2023/08/02 04:22:05;;;;;;;6.47;4.07;;;17.20;1.00;;;;;;5054728;28;20800;-76
2023/08/02 04:24:32;;;;;;;4.27;3.87;;;17.30;1.00;;;;;;5053789;28;20547;-76
2023/08/02 04:26:59;;;;;;;6.30;5.70;;;17.20;1.00;;;;;;5051821;28;20460;-76
2023/08/02 04:29:27;;;;;;;4.53;4.13;;;17.20;1.00;;;;;;5050718;28;21027;-76
2023/08/02 04:31:54;;;;;;;4.60;4.10;;;17.10;1.00;;;;;;5048330;28;20459;-75
2023/08/02 04:34:21;;;;;;;4.53;4.13;;;17.20;1.00;;;;;;5052744;28;20966;-75
2023/08/02 04:36:48;;;;;;;6.00;5.50;;;17.20;1.00;;;;;;5053529;28;20876;-74
2023/08/02 04:39:16;;;;;;;7.40;5.60;;;17.20;1.00;;;;;;5054229;28;20861;-75
2023/08/02 04:41:43;;;;;;;5.00;4.50;;;17.30;1.00;;;;;;5055470;28;20457;-74
2023/08/02 04:44:10;;;;;;;4.80;4.40;;;17.20;1.00;;;;;;5055533;28;20460;-75
2023/08/02 04:46:38;;;;;;;7.03;4.40;;;17.20;1.00;;;;;;5055753;28;20912;-75
2023/08/02 04:49:05;;;;;;;5.00;4.43;;;17.30;1.00;;;;;;5053888;28;20474;-76
2023/08/02 04:51:36;;;;;;;7.63;4.47;;;17.30;1.00;;;;;;5054693;28;20452;-75
2023/08/02 04:54:03;;;;;;;4.37;3.97;;;17.30;1.00;;;;;;5053760;28;20544;-75
2023/08/02 04:56:30;;;;;;;4.20;3.80;;;17.30;1.00;;;;;;5055868;28;20449;-74
2023/08/02 04:58:57;;;;;;;4.83;4.37;;;17.30;1.00;;;;;;5054564;28;20936;-75
2023/08/02 05:01:25;;;;;;;6.03;4.63;;;17.30;1.00;;;;;;5053360;28;20475;-74
2023/08/02 05:03:54;;;;;;;4.50;4.07;;;17.40;1.00;;;;;;5056091;28;20479;-74
2023/08/02 05:06:21;;;;;;;4.17;3.77;;;17.40;1.00;;;;;;5054879;28;20555;-74
2023/08/02 05:08:48;;;;;;;4.70;3.90;;;17.40;1.00;;;;;;5056452;28;20487;-75
2023/08/02 05:11:15;;;;;;;4.00;3.60;;;17.40;1.00;;;;;;5052728;28;20572;-74
2023/08/02 05:13:42;;;;;;;4.60;4.20;;;17.40;1.00;;;;;;5054961;28;20550;-75
2023/08/02 05:16:13;;;;;;;5.53;4.40;;;17.40;1.00;;;;;;5055181;28;20555;-75
2023/08/02 05:18:40;;;;;;;5.80;3.60;;;17.50;1.00;;;;;;5053669;28;20596;-75
2023/08/02 05:21:12;;;;;;;5.47;4.30;;;17.50;1.00;;;;;;5055075;28;20450;-75
2023/08/02 05:23:39;;;;;;;4.70;4.20;;;17.50;1.00;;;;;;5054559;28;20984;-74
2023/08/02 05:26:07;;;;;;;3.60;3.30;;;17.60;1.00;;;;;;5050118;28;20488;-75
2023/08/02 05:28:35;;;;;;;4.03;3.73;;;17.60;1.00;;;;;;5055049;28;20567;-75
2023/08/02 05:31:02;;;;;;;3.70;3.40;;;17.60;1.00;;;;;;5056712;28;20524;-74
2023/08/02 05:33:29;;;;;;;4.20;3.77;;;17.60;1.00;;;;;;5056045;28;20463;-75
2023/08/02 05:35:56;;;;;;;4.13;3.30;;;17.70;1.00;;;;;;5055259;28;20470;-75
2023/08/02 05:38:24;;;;;;;3.60;3.30;;;17.70;1.00;;;;;;5053609;28;20524;-74
2023/08/02 05:40:51;;;;;;;6.63;4.43;;;17.70;1.00;;;;;;5056072;28;20465;-75
2023/08/02 05:43:18;;;;;;;4.03;3.67;;;17.80;1.00;;;;;;5055259;28;20501;-75
2023/08/02 05:45:52;;;;;;;4.10;3.57;;;17.90;1.00;;;;;;5055837;28;20459;-75
2023/08/02 05:48:18;;;;;;;4.07;3.77;;;18.00;1.00;;;;;;5054066;28;20545;-75
2023/08/02 05:50:45;;;;;;;5.07;4.13;;;18.20;1.00;;;;;;5056728;28;21348;-76
2023/08/02 05:53:13;;;;;;;4.60;2.87;;;18.40;1.00;;;;;;5036540;28;20475;-75
2023/08/02 05:55:41;;;;;;;6.63;3.27;;;18.40;1.00;;;;;;5053614;28;20545;-76
2023/08/02 05:58:08;;;;;;;3.50;3.20;;;18.40;1.00;;;;;;5052854;28;20460;-75
2023/08/02 06:00:35;;;;;;;4.13;3.83;;;18.50;1.00;;;;;;5055319;28;21378;-75
2023/08/02 06:03:02;;;;;;;3.80;3.20;;;18.50;1.00;;;;;;5054910;28;20949;-75
2023/08/02 06:05:29;;;;;;;11.33;4.90;;;18.50;1.00;;;;;;5053812;28;20456;-76
2023/08/02 06:07:56;;;;;;;3.60;3.30;;;18.60;1.00;;;;;;5055489;28;20509;-76
2023/08/02 06:10:23;;;;;;;3.93;3.63;;;18.60;1.00;;;;;;5051971;28;20614;-76
2023/08/02 06:12:51;;;;;;;4.20;3.50;;;18.90;1.00;;;;;;5054700;28;20463;-76
2023/08/02 06:15:18;;;;;;;4.30;3.90;;;18.90;1.00;;;;;;5053908;28;20467;-76
2023/08/02 06:17:45;;;;;;;3.63;3.13;;;18.90;1.00;;;;;;5050947;28;20480;-76
2023/08/02 06:20:12;;;;;;;3.90;3.50;;;18.80;1.00;;;;;;5052833;28;20463;-76
2023/08/02 06:22:39;;;;;;;4.00;3.27;;;18.80;1.00;;;;;;5055684;28;21406;-76
2023/08/02 06:25:07;;;;;;;3.90;3.07;;;18.80;1.00;;;;;;5053824;28;20884;-75
2023/08/02 06:27:34;;;;;;;3.30;2.80;;;18.80;1.00;;;;;;5054435;28;20467;-75
2023/08/02 06:30:03;;;;;;;3.53;3.13;;;18.60;1.00;;;;;;5052245;28;20459;-74
2023/08/02 06:32:30;;;;;;;8.03;4.67;;;18.50;1.00;;;;;;5053598;28;20437;-75
2023/08/02 06:34:57;;;;;;;4.13;3.73;;;18.50;1.00;;;;;;5053954;28;20892;-76
2023/08/02 06:37:24;;;;;;;6.07;3.63;;;18.60;1.00;;;;;;5055013;28;20462;-74
2023/08/02 06:39:51;;;;;;;4.00;3.40;;;18.60;1.00;;;;;;5041204;28;21068;-76
2023/08/02 06:42:17;;;;;;;4.00;3.60;;;18.70;1.00;;;;;;5053433;28;20458;-76
2023/08/02 06:44:45;;;;;;;6.37;4.47;;;18.90;1.00;;;;;;5054774;28;20507;-75
2023/08/02 06:47:15;;;;;;;3.97;3.50;;;18.90;1.00;;;;;;5055209;28;20474;-76
2023/08/02 06:49:42;;;;;;;4.57;4.00;;;18.80;1.00;;;;;;5052640;28;20458;-75
2023/08/02 06:52:10;;;;;;;4.20;3.40;;;18.80;1.00;;;;;;5052293;28;20463;-76
2023/08/02 06:54:37;;;;;;;3.90;3.60;;;18.80;1.00;;;;;;5055633;28;20551;-75
2023/08/02 06:57:04;;;;;;;6.73;3.93;;;18.90;1.00;;;;;;5053748;28;20712;-76
2023/08/02 06:59:31;;;;;;;6.20;3.40;;;19.10;1.00;;;;;;5051731;28;20474;-76
2023/08/02 07:02:00;;;;;;;4.80;4.10;;;19.10;1.00;;;;;;5053638;28;20474;-75
2023/08/02 07:04:28;;;;;;;5.93;4.13;;;19.10;1.00;;;;;;5053646;28;20462;-76
2023/08/02 07:06:55;;;;;;;5.03;3.93;;;19.30;1.00;;;;;;5053325;28;20542;-76
2023/08/02 07:09:22;;;;;;;6.30;4.23;;;19.30;1.00;;;;;;5052664;28;20454;-75
2023/08/02 07:11:49;;;;;;;5.93;4.17;;;19.40;1.00;;;;;;5053918;28;20545;-75
2023/08/02 07:14:16;;;;;;;10.73;6.37;;;19.60;1.00;;;;;;5050461;28;20536;-75
2023/08/02 07:16:43;;;;;;;4.80;3.70;;;19.60;1.00;;;;;;5054180;28;20922;-76
2023/08/02 07:19:10;;;;;;;4.33;3.90;;;19.70;1.00;;;;;;5049840;28;20456;-76
2023/08/02 07:21:38;;;;;;;6.00;3.80;;;19.80;1.00;;;;;;5052170;28;20551;-76
2023/08/02 07:24:05;;;;;;;3.30;3.00;;;19.80;1.00;;;;;;5051478;28;20460;-75
2023/08/02 07:26:32;;;;;;;5.30;4.10;;;19.80;1.00;;;;;;5048895;28;20498;-76
2023/08/02 07:28:59;;;;;;;3.83;3.43;;;19.90;1.00;;;;;;5052469;28;20545;-75
2023/08/02 07:31:26;;;;;;;4.80;3.13;;;19.90;1.00;;;;;;5048859;28;20455;-75
2023/08/02 07:33:53;;;;;;;3.73;3.43;;;19.90;1.00;;;;;;5050387;28;20899;-76
2023/08/02 07:36:21;;;;;;;4.00;3.60;;;20.00;1.00;;;;;;5049527;28;20522;-76
2023/08/02 07:38:49;;;;;;;5.20;3.77;;;20.10;1.00;;;;;;5053720;28;20577;-76
2023/08/02 07:41:16;;;;;;;3.23;3.00;;;20.10;1.00;;;;;;5051228;28;20468;-76
2023/08/02 07:43:43;;;;;;;3.37;3.07;;;20.20;1.00;;;;;;5053609;28;20605;-75
2023/08/02 07:46:17;;;;;;;4.27;3.30;;;20.20;1.00;;;;;;5054246;28;20516;-75
2023/08/02 07:48:44;;;;;;;3.70;3.40;;;20.20;1.00;;;;;;5052189;28;20465;-75
2023/08/02 07:51:10;;;;;;;3.40;3.10;;;20.30;1.00;;;;;;5052042;28;20558;-76
2023/08/02 07:53:37;;;;;;;6.70;3.77;;;20.40;1.00;;;;;;5051461;28;20478;-76
2023/08/02 07:56:07;;;;;;;5.03;3.00;;;20.50;1.00;;;;;;5049901;28;21037;-76
2023/08/02 07:58:34;;;;;;;4.23;3.17;;;20.60;1.00;;;;;;5053704;28;20484;-75
2023/08/02 08:01:06;;;;;;;4.17;3.50;;;20.60;1.00;;;;;;5055261;28;20484;-75
2023/08/02 08:03:33;;;;;;;3.50;3.20;;;20.60;1.00;;;;;;5051708;28;20416;-75
2023/08/02 08:06:00;;;;;;;4.63;2.97;;;20.60;1.00;;;;;;5055499;28;20480;-76
2023/08/02 08:08:27;;;;;;;3.10;2.67;;;20.60;1.00;;;;;;5052655;28;20853;-76
2023/08/02 08:10:54;;;;;;;5.67;3.00;;;20.60;1.00;;;;;;5054889;28;21083;-77
2023/08/02 08:13:23;;;;;;;5.37;2.97;;;20.80;1.00;;;;;;5054815;28;20460;-76
2023/08/02 08:15:50;;;;;;;5.07;3.17;;;21.00;1.00;;;;;;5055871;28;20481;-76
2023/08/02 08:18:17;;;;;;;4.77;2.87;;;21.30;1.00;;;;;;5055506;28;20450;-76
2023/08/02 08:20:43;;;;;;;3.80;3.47;;;21.60;1.00;;;;;;5055199;28;20526;-76
2023/08/02 08:23:10;;;;;;;4.30;2.57;;;21.90;1.00;;;;;;5055021;28;20554;-76
2023/08/02 08:25:37;;;;;;;2.70;2.50;;;22.20;1.00;;;;;;5054664;28;20507;-73
2023/08/02 08:28:05;;;;;;;4.30;3.30;;;22.30;1.00;;;;;;5056841;28;20839;-74
2023/08/02 08:30:33;;;;;;;3.70;2.73;;;22.30;1.00;;;;;;5053273;28;20459;-74
2023/08/02 08:33:00;;;;;;;4.80;2.60;;;22.10;1.00;;;;;;5056528;28;20502;-73
2023/08/02 08:35:27;;;;;;;4.50;2.60;;;21.70;1.00;;;;;;5055786;28;20492;-73
2023/08/02 08:37:54;;;;;;;3.17;1.80;;;21.70;1.00;;;;;;5056433;28;20469;-74
2023/08/02 08:40:21;;;;;;;2.30;2.10;;;21.70;1.00;;;;;;5053388;28;20908;-75
2023/08/02 08:42:49;;;;;;;3.37;1.80;;;21.70;1.00;;;;;;5056120;28;20537;-74
2023/08/02 08:45:19;;;;;;;2.33;1.83;;;21.60;1.00;;;;;;5057306;28;20474;-74
2023/08/02 08:47:48;;;;;;;2.17;1.97;;;21.70;1.00;;;;;;5055677;28;20542;-73
2023/08/02 08:50:16;;;;;;;3.93;1.80;;;21.90;1.00;;;;;;5055723;28;21001;-73
2023/08/02 08:52:46;;;;;;;2.40;1.80;;;22.20;1.00;;;;;;5056388;28;20494;-73
2023/08/02 08:55:14;;;;;;;2.03;1.63;;;22.10;1.00;;;;;;5055848;28;20568;-73
2023/08/02 08:57:43;;;;;;;3.80;1.90;;;22.10;1.00;;;;;;5055351;28;20865;-73
2023/08/02 09:00:13;;;;;;;5.60;2.90;;;22.20;1.00;;;;;;5055407;28;20476;-74
2023/08/02 09:02:40;;;;;;;2.20;1.70;;;22.30;1.00;;;;;;5054306;28;20471;-76
2023/08/02 09:05:09;;;;;;;2.50;2.10;;;22.60;1.00;;;;;;5055957;28;21083;-74
2023/08/02 09:07:36;;;;;;;2.63;2.03;;;22.90;1.00;;;;;;5056516;28;20468;-74
2023/08/02 09:10:04;;;;;;;2.07;1.87;;;23.10;1.00;;;;;;5056531;28;20569;-76
2023/08/02 09:12:43;;;;;;;3.10;1.50;;;23.30;1.00;;;;;;5057154;28;20457;-73
2023/08/02 09:15:10;;;;;;;2.57;1.90;;;23.60;1.00;;;;;;5056147;28;20994;-73
2023/08/02 09:17:46;;;;;;;2.40;2.00;;;23.60;1.00;;;;;;5055804;28;20475;-74
2023/08/02 09:20:16;;;;;;;3.77;2.17;;;23.60;1.00;;;;;;5054344;28;20466;-75
2023/08/02 09:22:43;;;;;;;5.00;1.87;;;23.80;1.00;;;;;;5054056;28;20463;-74
2023/08/02 09:25:21;;;;;;;1.80;1.60;;;23.90;1.00;;;;;;5055637;28;20550;-75
2023/08/02 09:27:49;;;;;;;3.43;2.60;;;24.10;1.00;;;;;;5056124;28;21012;-72
2023/08/02 09:30:24;;;;;;;3.30;1.83;;;24.20;1.00;;;;;;5056777;28;20475;-74
2023/08/02 09:33:02;;;;;;;2.30;1.60;;;24.30;1.00;;;;;;5053907;28;20454;-73
2023/08/02 09:35:34;;;;;;;2.47;2.00;;;24.50;1.00;;;;;;5055467;28;20580;-74
2023/08/02 09:38:01;;;;;;;2.30;1.80;;;24.40;1.00;;;;;;5055088;28;20437;-75
2023/08/02 09:40:36;;;;;;;3.10;1.77;;;24.20;1.00;;;;;;5054654;28;20480;-74
2023/08/02 09:43:04;;;;;;;2.43;1.40;;;24.00;1.00;;;;;;5056328;28;20810;-76
2023/08/02 09:45:35;;;;;;;2.87;2.03;;;25.00;1.00;;;;;;5056071;28;20516;-75
2023/08/02 09:48:03;;;;;;;2.87;1.53;;;26.10;1.00;;;;;;5055880;28;20462;-75
2023/08/02 09:50:31;;;;;;;2.07;1.77;;;26.20;1.00;;;;;;5056474;28;20501;-75
2023/08/02 09:53:13;;;;;;;3.10;1.70;;;25.90;1.00;;;;;;5027326;28;21307;-74
2023/08/02 09:55:44;;;;;;;3.60;2.13;;;25.50;1.00;;;;;;5056079;28;20480;-75
2023/08/02 09:58:13;;;;;;;4.00;2.00;;;24.90;1.00;;;;;;5050452;28;20473;-75
2023/08/02 10:00:40;;;;;;;2.60;2.07;;;25.30;1.00;;;;;;5054204;28;20542;-74
2023/08/02 10:03:07;;;;;;;2.87;1.63;;;26.40;1.00;;;;;;5054023;28;20462;-74
2023/08/02 10:05:42;;;;;;;3.67;2.07;;;27.30;1.00;;;;;;5055652;28;20507;-75
2023/08/02 10:08:12;;;;;;;5.20;2.67;;;26.80;1.00;;;;;;5055311;28;20554;-75
2023/08/02 10:10:44;;;;;;;3.90;1.73;;;26.60;1.00;;;;;;5054254;28;20470;-75
2023/08/02 10:13:18;;;;;;;3.63;2.00;;;26.80;1.00;;;;;;5055651;28;20490;-74
2023/08/02 10:15:48;;;;;;;3.30;1.70;;;27.50;1.00;;;;;;5055325;28;20974;-74
2023/08/02 10:18:16;;;;;;;1.70;1.60;;;27.70;1.00;;;;;;5055539;28;20885;-74
2023/08/02 10:20:45;;;;;;;2.03;1.83;;;26.50;1.00;;;;;;5055178;28;20957;-75
2023/08/02 10:23:12;;;;;;;3.37;1.70;;;25.80;1.00;;;;;;5053729;28;20463;-76
2023/08/02 10:25:39;;;;;;;4.13;1.63;;;26.70;1.00;;;;;;5054722;28;20571;-74
2023/08/02 10:28:07;;;;;;;2.10;1.70;;;26.50;1.00;;;;;;5054517;28;20461;-74
2023/08/02 10:30:35;;;;;;;2.73;1.90;;;26.20;1.00;;;;;;5051606;28;20965;-75
2023/08/02 10:33:13;;;;;;;1.50;1.40;;;25.90;1.00;;;;;;5052240;28;20564;-75
2023/08/02 10:35:59;;;;;;;3.00;2.00;;;26.40;1.00;;;;;;5047060;28;20550;-76
2023/08/02 10:38:27;;;;;;;2.33;1.43;;;26.50;1.00;;;;;;5054561;28;20447;-75
2023/08/02 10:41:16;;;;;;;3.57;1.70;;;26.40;1.00;;;;;;5051296;28;20498;-75
2023/08/02 10:44:13;;;;;;;2.73;1.90;;;26.10;1.00;;;;;;5055181;28;20848;-75
2023/08/02 10:46:40;;;;;;;2.13;1.40;;;26.30;1.00;;;;;;5054146;28;20474;-76
2023/08/02 10:49:48;;;;;;;1.67;1.37;;;28.00;1.00;;;;;;5052525;28;20463;-76
2023/08/02 10:52:29;;;;;;;2.50;1.70;;;28.90;1.00;;;;;;5054460;28;20473;-76
2023/08/02 10:55:11;;;;;;;2.07;1.40;;;28.60;1.00;;;;;;5054321;28;20493;-76
2023/08/02 10:57:39;;;;;;;1.60;1.30;;;27.70;1.00;;;;;;5052748;28;20461;-76
2023/08/02 11:00:25;;;;;;;3.33;1.80;;;27.20;1.00;;;;;;5053498;28;20511;-76
2023/08/02 11:02:54;;;;;;;2.30;1.37;;;27.80;1.00;;;;;;5053003;28;20454;-76
2023/08/02 11:05:37;;;;;;;2.10;1.40;;;28.60;1.00;;;;;;5053419;28;20491;-76
2023/08/02 11:08:07;;;;;;;2.20;1.50;;;28.80;1.00;;;;;;5051494;28;20563;-76
2023/08/02 11:10:35;;;;;;;2.03;1.77;;;29.20;1.00;;;;;;5055917;28;20460;-76
2023/08/02 11:13:03;;;;;;;2.10;1.60;;;29.60;1.00;;;;;;5053323;28;20566;-76
2023/08/02 11:15:30;;;;;;;1.90;1.53;;;28.90;1.00;;;;;;5053709;28;20542;-76
2023/08/02 11:17:57;;;;;;;2.50;1.70;;;27.80;1.00;;;;;;5054709;28;20453;-76
2023/08/02 11:20:25;;;;;;;1.53;1.43;;;27.30;1.00;;;;;;5052989;28;20962;-76
2023/08/02 11:22:53;;;;;;;3.13;1.60;;;27.00;1.00;;;;;;5054226;28;20481;-76
2023/08/02 11:25:22;;;;;;;3.13;2.40;;;26.70;1.00;;;;;;5051960;28;20566;-76
2023/08/02 11:27:59;;;;;;;4.10;2.53;;;26.20;1.00;;;;;;5052385;28;21833;-75
2023/08/02 11:30:27;;;;;;;3.13;2.20;;;25.50;1.00;;;;;;5051244;28;20914;-76
2023/08/02 11:32:54;;;;;;;2.33;2.13;;;25.20;1.00;;;;;;5053494;28;20492;-76
2023/08/02 11:35:21;;;;;;;3.50;2.53;;;25.20;1.00;;;;;;5051316;28;20877;-75
2023/08/02 11:37:48;;;;;;;2.53;2.33;;;25.30;1.00;;;;;;5052921;28;20505;-76
2023/08/02 11:40:15;;;;;;;6.87;2.63;;;25.20;1.00;;;;;;5053674;28;20461;-76
2023/08/02 11:42:51;;;;;;;2.30;2.20;;;25.20;1.00;;;;;;5052869;28;20545;-74
2023/08/02 11:45:29;;;;;;;2.30;2.10;;;24.90;1.00;;;;;;5053049;28;20973;-74
2023/08/02 11:47:56;;;;;;;2.57;2.37;;;24.80;1.00;;;;;;5054756;28;20997;-75
2023/08/02 11:50:27;;;;;;;3.27;2.97;;;24.70;1.00;;;;;;5055521;28;20549;-76
2023/08/02 11:53:03;;;;;;;3.30;2.43;;;24.70;1.00;;;;;;5056615;28;20460;-76
2023/08/02 11:55:30;;;;;;;2.97;2.67;;;24.60;1.00;;;;;;5057610;28;20485;-75
2023/08/02 11:57:59;;;;;;;2.70;2.03;;;24.70;1.00;;;;;;5056450;28;20477;-79
2023/08/02 12:00:26;;;;;;;3.33;3.03;;;24.70;1.00;;;;;;5057913;28;20888;-78
2023/08/02 12:02:53;;;;;;;3.27;2.10;;;25.00;1.00;;;;;;5055887;28;20454;-78
2023/08/02 12:05:21;;;;;;;2.83;2.53;;;25.10;1.00;;;;;;5058083;28;20917;-79
2023/08/02 12:07:48;;;;;;;3.73;2.10;;;25.10;1.00;;;;;;5056331;28;20555;-79
2023/08/02 12:10:28;;;;;;;3.90;2.90;;;25.10;1.00;;;;;;5057636;28;20495;-79
2023/08/02 12:12:55;;;;;;;3.43;2.63;;;25.20;1.00;;;;;;5058187;28;20982;-78
2023/08/02 12:15:24;;;;;;;3.80;3.43;;;25.50;1.00;;;;;;5058155;28;20904;-79
2023/08/02 12:18:03;;;;;;;2.50;2.30;;;25.40;1.00;;;;;;5058437;28;20455;-79
2023/08/02 12:20:31;;;;;;;2.63;2.40;;;25.40;1.00;;;;;;5057891;28;20453;-78
2023/08/02 12:22:58;;;;;;;3.53;2.87;;;25.20;1.00;;;;;;5056525;28;20509;-80
2023/08/02 12:25:25;;;;;;;2.90;2.70;;;25.30;1.00;;;;;;5058038;28;20988;-79
2023/08/02 12:28:05;;;;;;;4.20;2.23;;;25.30;1.00;;;;;;5056538;28;20499;-79
2023/08/02 12:30:33;;;;;;;2.80;2.60;;;25.90;1.00;;;;;;5054145;28;20506;-79
2023/08/02 12:33:00;;;;;;;2.80;2.43;;;27.00;1.00;;;;;;5054242;28;20552;-79
2023/08/02 12:35:27;;;;;;;3.10;2.80;;;27.70;1.00;;;;;;5053996;28;20539;-79
2023/08/02 12:37:54;;;;;;;5.20;3.43;;;27.80;1.00;;;;;;5054998;28;20562;-79
2023/08/02 12:40:23;;;;;;;5.37;2.67;;;27.50;1.00;;;;;;5055632;28;21273;-79
2023/08/02 12:42:50;;;;;;;2.80;2.60;;;26.50;1.00;;;;;;5056652;28;20470;-79
2023/08/02 12:45:16;;;;;;;5.10;3.20;;;25.80;1.00;;;;;;5053778;28;22206;-78
2023/08/02 12:47:45;;;;;;;3.40;2.60;;;25.50;1.00;;;;;;5054322;28;20555;-79
2023/08/02 12:50:12;;;;;;;3.33;3.03;;;25.10;1.00;;;;;;5056232;28;20530;-79
2023/08/02 12:52:39;;;;;;;3.40;3.10;;;24.80;1.00;;;;;;5059327;28;20537;-80
2023/08/02 12:55:06;;;;;;;2.90;2.67;;;24.70;1.00;;;;;;5055913;28;20471;-79
2023/08/02 12:57:33;;;;;;;4.20;2.77;;;24.90;1.00;;;;;;5051595;28;20477;-78
2023/08/02 13:00:00;;;;;;;6.33;3.03;;;24.80;1.00;;;;;;5056140;28;20574;-79
2023/08/02 13:02:27;;;;;;;3.20;2.90;;;24.80;1.00;;;;;;5053881;28;21013;-78
2023/08/02 13:04:55;;;;;;;3.60;3.00;;;24.40;1.00;;;;;;5056455;28;20476;-78